sensor_id;sensor_type;location;lat;lon;timestamp;pressure;altitude;pressure_sealevel;temperature;humidity
30875;BME280;17581;43.222;27.924;2023-02-02T00:01:21;100624.75;;;6.81;58.44
30875;BME280;17581;43.222;27.924;2023-02-02T00:03:47;100629.56;;;6.76;58.65
30875;BME280;17581;43.222;27.924;2023-02-02T00:06:16;100614.69;;;6.57;58.89
30875;BME280;17581;43.222;27.924;2023-02-02T00:08:42;100607.78;;;6.68;58.82
30875;BME280;17581;43.222;27.924;2023-02-02T00:11:07;100619.81;;;6.75;58.11
30875;BME280;17581;43.222;27.924;2023-02-02T00:13:33;100603.59;;;6.64;59.01
30875;BME280;17581;43.222;27.924;2023-02-02T00:15:58;100610.84;;;6.76;58.55
30875;BME280;17581;43.222;27.924;2023-02-02T00:18:24;100614.47;;;6.75;58.46
30875;BME280;17581;43.222;27.924;2023-02-02T00:20:49;100605.38;;;6.77;58.13
30875;BME280;17581;43.222;27.924;2023-02-02T00:23:15;100613.84;;;6.84;58.15
30875;BME280;17581;43.222;27.924;2023-02-02T00:25:41;100609.63;;;6.94;57.63
30875;BME280;17581;43.222;27.924;2023-02-02T00:28:07;100573.56;;;6.87;57.53
30875;BME280;17581;43.222;27.924;2023-02-02T00:30:32;100589.63;;;6.99;57.65
30875;BME280;17581;43.222;27.924;2023-02-02T00:32:58;100571.41;;;6.92;57.17
30875;BME280;17581;43.222;27.924;2023-02-02T00:35:23;100594.84;;;7.01;57.56
30875;BME280;17581;43.222;27.924;2023-02-02T00:37:49;100598.72;;;6.97;57.30
30875;BME280;17581;43.222;27.924;2023-02-02T00:40:14;100603.50;;;6.92;57.55
30875;BME280;17581;43.222;27.924;2023-02-02T00:42:39;100595.22;;;6.82;57.95
30875;BME280;17581;43.222;27.924;2023-02-02T00:45:05;100595.03;;;6.85;57.58
30875;BME280;17581;43.222;27.924;2023-02-02T00:47:49;100602.34;;;6.96;57.86
30875;BME280;17581;43.222;27.924;2023-02-02T00:50:17;100590.50;;;7.00;56.75
30875;BME280;17581;43.222;27.924;2023-02-02T00:52:47;100610.28;;;7.10;56.58
30875;BME280;17581;43.222;27.924;2023-02-02T00:55:13;100602.47;;;7.07;56.63
30875;BME280;17581;43.222;27.924;2023-02-02T00:57:39;100580.00;;;6.97;56.13
30875;BME280;17581;43.222;27.924;2023-02-02T01:00:07;100603.66;;;7.16;56.39
30875;BME280;17581;43.222;27.924;2023-02-02T01:02:34;100590.66;;;7.24;56.10
30875;BME280;17581;43.222;27.924;2023-02-02T01:05:00;100567.09;;;7.16;56.25
30875;BME280;17581;43.222;27.924;2023-02-02T01:07:25;100569.69;;;7.30;55.48
30875;BME280;17581;43.222;27.924;2023-02-02T01:09:50;100576.50;;;7.34;55.96
30875;BME280;17581;43.222;27.924;2023-02-02T01:12:16;100563.28;;;7.45;55.42
30875;BME280;17581;43.222;27.924;2023-02-02T01:14:41;100553.88;;;7.40;55.12
30875;BME280;17581;43.222;27.924;2023-02-02T01:17:07;100570.97;;;7.50;55.24
30875;BME280;17581;43.222;27.924;2023-02-02T01:19:33;100564.97;;;7.46;55.14
30875;BME280;17581;43.222;27.924;2023-02-02T01:21:58;100555.97;;;7.47;55.39
30875;BME280;17581;43.222;27.924;2023-02-02T01:24:24;100566.03;;;7.44;55.14
30875;BME280;17581;43.222;27.924;2023-02-02T01:26:49;100573.00;;;7.46;54.81
30875;BME280;17581;43.222;27.924;2023-02-02T01:29:15;100557.28;;;7.42;55.18
30875;BME280;17581;43.222;27.924;2023-02-02T01:31:40;100543.03;;;7.41;55.19
30875;BME280;17581;43.222;27.924;2023-02-02T01:34:07;100570.09;;;7.49;55.03
30875;BME280;17581;43.222;27.924;2023-02-02T01:36:32;100547.66;;;7.39;54.97
30875;BME280;17581;43.222;27.924;2023-02-02T01:38:58;100564.66;;;7.51;55.15
30875;BME280;17581;43.222;27.924;2023-02-02T01:41:24;100554.38;;;7.45;54.62
30875;BME280;17581;43.222;27.924;2023-02-02T01:44:00;100557.91;;;7.45;54.72
30875;BME280;17581;43.222;27.924;2023-02-02T01:46:31;100552.66;;;7.44;55.66
30875;BME280;17581;43.222;27.924;2023-02-02T01:51:33;100540.13;;;7.32;54.33
30875;BME280;17581;43.222;27.924;2023-02-02T01:54:00;100544.09;;;7.26;54.87
30875;BME280;17581;43.222;27.924;2023-02-02T01:56:31;100550.41;;;7.38;54.48
30875;BME280;17581;43.222;27.924;2023-02-02T01:58:59;100548.81;;;7.35;54.72
30875;BME280;17581;43.222;27.924;2023-02-02T02:01:25;100557.91;;;7.33;55.16
30875;BME280;17581;43.222;27.924;2023-02-02T02:03:51;100556.84;;;7.35;55.21
30875;BME280;17581;43.222;27.924;2023-02-02T02:06:18;100554.69;;;7.15;55.34
30875;BME280;17581;43.222;27.924;2023-02-02T02:08:49;100554.69;;;7.15;55.59
30875;BME280;17581;43.222;27.924;2023-02-02T02:11:20;100565.91;;;7.20;55.62
30875;BME280;17581;43.222;27.924;2023-02-02T02:13:46;100556.59;;;7.13;55.57
30875;BME280;17581;43.222;27.924;2023-02-02T02:16:49;100567.72;;;7.07;56.24
30875;BME280;17581;43.222;27.924;2023-02-02T02:22:22;100561.28;;;6.97;56.05
30875;BME280;17581;43.222;27.924;2023-02-02T02:41:52;100561.72;;;6.64;57.12
30875;BME280;17581;43.222;27.924;2023-02-02T02:44:20;100542.00;;;6.52;56.93
30875;BME280;17581;43.222;27.924;2023-02-02T02:46:47;100562.19;;;6.44;57.30
30875;BME280;17581;43.222;27.924;2023-02-02T02:49:13;100556.81;;;6.44;57.44
30875;BME280;17581;43.222;27.924;2023-02-02T02:51:46;100549.31;;;6.36;57.28
30875;BME280;17581;43.222;27.924;2023-02-02T02:54:18;100565.31;;;6.36;57.64
30875;BME280;17581;43.222;27.924;2023-02-02T02:59:35;100556.91;;;6.16;58.09
30875;BME280;17581;43.222;27.924;2023-02-02T03:07:54;100563.84;;;6.18;58.51
30875;BME280;17581;43.222;27.924;2023-02-02T03:10:27;100564.81;;;6.17;58.57
30875;BME280;17581;43.222;27.924;2023-02-02T03:12:54;100547.34;;;6.12;58.68
30875;BME280;17581;43.222;27.924;2023-02-02T03:15:21;100555.56;;;6.23;58.68
30875;BME280;17581;43.222;27.924;2023-02-02T03:17:47;100558.09;;;6.24;58.69
30875;BME280;17581;43.222;27.924;2023-02-02T03:20:14;100561.97;;;6.20;58.53
30875;BME280;17581;43.222;27.924;2023-02-02T03:22:40;100556.03;;;6.29;58.42
30875;BME280;17581;43.222;27.924;2023-02-02T03:25:06;100543.41;;;6.31;58.47
30875;BME280;17581;43.222;27.924;2023-02-02T03:27:35;100542.47;;;6.32;58.34
30875;BME280;17581;43.222;27.924;2023-02-02T03:30:01;100541.50;;;6.33;58.12
30875;BME280;17581;43.222;27.924;2023-02-02T03:32:27;100551.97;;;6.36;57.53
30875;BME280;17581;43.222;27.924;2023-02-02T03:34:53;100545.22;;;6.31;57.73
30875;BME280;17581;43.222;27.924;2023-02-02T03:37:18;100553.75;;;6.23;58.21
30875;BME280;17581;43.222;27.924;2023-02-02T03:39:43;100536.59;;;6.13;58.37
30875;BME280;17581;43.222;27.924;2023-02-02T03:42:09;100529.47;;;5.99;58.73
30875;BME280;17581;43.222;27.924;2023-02-02T03:44:34;100541.19;;;5.97;58.89
30875;BME280;17581;43.222;27.924;2023-02-02T03:47:00;100547.97;;;5.88;59.34
30875;BME280;17581;43.222;27.924;2023-02-02T03:49:25;100552.25;;;5.91;59.33
30875;BME280;17581;43.222;27.924;2023-02-02T03:51:50;100540.84;;;5.89;59.20
30875;BME280;17581;43.222;27.924;2023-02-02T03:54:16;100547.59;;;5.94;59.22
30875;BME280;17581;43.222;27.924;2023-02-02T03:56:41;100555.97;;;6.02;59.40
30875;BME280;17581;43.222;27.924;2023-02-02T03:59:07;100532.91;;;6.01;59.01
30875;BME280;17581;43.222;27.924;2023-02-02T04:01:32;100551.66;;;6.14;59.08
30875;BME280;17581;43.222;27.924;2023-02-02T04:03:58;100546.34;;;6.14;58.91
30875;BME280;17581;43.222;27.924;2023-02-02T04:06:24;100538.53;;;6.11;58.61
30875;BME280;17581;43.222;27.924;2023-02-02T04:08:50;100549.63;;;6.18;58.63
30875;BME280;17581;43.222;27.924;2023-02-02T04:11:16;100561.19;;;6.18;58.68
30875;BME280;17581;43.222;27.924;2023-02-02T04:13:41;100557.81;;;6.29;58.59
30875;BME280;17581;43.222;27.924;2023-02-02T04:16:11;100558.78;;;6.28;58.26
30875;BME280;17581;43.222;27.924;2023-02-02T04:18:36;100563.25;;;6.27;58.22
30875;BME280;17581;43.222;27.924;2023-02-02T04:21:06;100561.91;;;6.34;58.25
30875;BME280;17581;43.222;27.924;2023-02-02T04:23:32;100563.63;;;6.35;58.44
30875;BME280;17581;43.222;27.924;2023-02-02T04:25:58;100566.78;;;6.28;58.24
30875;BME280;17581;43.222;27.924;2023-02-02T04:28:25;100564.03;;;6.15;58.58
30875;BME280;17581;43.222;27.924;2023-02-02T04:30:52;100570.91;;;6.19;58.77
30875;BME280;17581;43.222;27.924;2023-02-02T04:33:18;100572.03;;;6.29;58.61
30875;BME280;17581;43.222;27.924;2023-02-02T04:35:43;100568.84;;;6.10;58.83
30875;BME280;17581;43.222;27.924;2023-02-02T04:38:09;100579.66;;;6.21;58.96
30875;BME280;17581;43.222;27.924;2023-02-02T04:40:39;100568.56;;;6.00;59.36
30875;BME280;17581;43.222;27.924;2023-02-02T04:43:04;100561.59;;;5.98;59.50
30875;BME280;17581;43.222;27.924;2023-02-02T04:45:30;100587.06;;;5.89;60.28
30875;BME280;17581;43.222;27.924;2023-02-02T04:47:55;100566.59;;;5.90;60.49
30875;BME280;17581;43.222;27.924;2023-02-02T04:50:21;100574.28;;;5.94;60.56
30875;BME280;17581;43.222;27.924;2023-02-02T04:52:46;100560.47;;;5.88;60.92
30875;BME280;17581;43.222;27.924;2023-02-02T04:55:12;100564.75;;;5.90;60.82
30875;BME280;17581;43.222;27.924;2023-02-02T04:57:37;100558.66;;;5.88;61.27
30875;BME280;17581;43.222;27.924;2023-02-02T05:00:03;100562.53;;;5.83;61.46
30875;BME280;17581;43.222;27.924;2023-02-02T05:02:29;100562.94;;;5.91;61.64
30875;BME280;17581;43.222;27.924;2023-02-02T05:04:54;100564.47;;;5.81;61.80
30875;BME280;17581;43.222;27.924;2023-02-02T05:07:20;100557.22;;;5.83;61.76
30875;BME280;17581;43.222;27.924;2023-02-02T05:09:45;100545.00;;;5.79;61.98
30875;BME280;17581;43.222;27.924;2023-02-02T05:12:11;100543.97;;;5.67;62.15
30875;BME280;17581;43.222;27.924;2023-02-02T05:14:36;100544.03;;;5.66;62.26
30875;BME280;17581;43.222;27.924;2023-02-02T05:17:01;100555.88;;;5.62;62.58
30875;BME280;17581;43.222;27.924;2023-02-02T05:19:27;100565.97;;;5.71;62.67
30875;BME280;17581;43.222;27.924;2023-02-02T05:21:53;100558.34;;;5.65;62.95
30875;BME280;17581;43.222;27.924;2023-02-02T05:24:19;100560.25;;;5.63;62.81
30875;BME280;17581;43.222;27.924;2023-02-02T05:26:44;100576.28;;;5.77;63.10
30875;BME280;17581;43.222;27.924;2023-02-02T05:29:10;100579.50;;;5.82;62.45
30875;BME280;17581;43.222;27.924;2023-02-02T05:31:35;100581.06;;;5.86;62.73
30875;BME280;17581;43.222;27.924;2023-02-02T05:34:01;100594.97;;;5.91;62.63
30875;BME280;17581;43.222;27.924;2023-02-02T05:36:27;100584.28;;;5.91;62.49
30875;BME280;17581;43.222;27.924;2023-02-02T05:38:52;100601.34;;;6.02;62.11
30875;BME280;17581;43.222;27.924;2023-02-02T05:41:18;100588.50;;;5.95;62.13
30875;BME280;17581;43.222;27.924;2023-02-02T05:43:43;100601.25;;;6.04;62.29
30875;BME280;17581;43.222;27.924;2023-02-02T05:46:09;100600.88;;;6.10;62.47
30875;BME280;17581;43.222;27.924;2023-02-02T05:48:35;100607.75;;;6.14;62.29
30875;BME280;17581;43.222;27.924;2023-02-02T05:51:15;100589.53;;;6.07;61.99
30875;BME280;17581;43.222;27.924;2023-02-02T05:53:41;100603.91;;;6.18;61.83
30875;BME280;17581;43.222;27.924;2023-02-02T05:56:09;100598.28;;;6.09;61.67
30875;BME280;17581;43.222;27.924;2023-02-02T05:58:35;100600.69;;;6.13;61.91
30875;BME280;17581;43.222;27.924;2023-02-02T06:01:01;100607.34;;;6.20;61.75
30875;BME280;17581;43.222;27.924;2023-02-02T06:03:26;100615.09;;;6.11;62.12
30875;BME280;17581;43.222;27.924;2023-02-02T06:05:52;100613.84;;;6.16;61.62
30875;BME280;17581;43.222;27.924;2023-02-02T06:08:17;100617.06;;;6.21;61.91
30875;BME280;17581;43.222;27.924;2023-02-02T06:10:43;100625.06;;;6.21;61.74
30875;BME280;17581;43.222;27.924;2023-02-02T06:13:08;100618.31;;;6.16;61.90
30875;BME280;17581;43.222;27.924;2023-02-02T06:15:35;100621.66;;;6.19;62.13
30875;BME280;17581;43.222;27.924;2023-02-02T06:18:00;100618.44;;;6.14;62.16
30875;BME280;17581;43.222;27.924;2023-02-02T06:20:26;100616.31;;;6.19;62.14
30875;BME280;17581;43.222;27.924;2023-02-02T06:22:52;100622.03;;;6.13;62.42
30875;BME280;17581;43.222;27.924;2023-02-02T06:25:18;100616.69;;;6.13;62.35
30875;BME280;17581;43.222;27.924;2023-02-02T06:27:43;100634.59;;;6.25;62.25
30875;BME280;17581;43.222;27.924;2023-02-02T06:30:11;100624.09;;;6.36;62.15
30875;BME280;17581;43.222;27.924;2023-02-02T06:32:37;100631.91;;;6.39;61.91
30875;BME280;17581;43.222;27.924;2023-02-02T06:35:04;100634.66;;;6.52;61.45
30875;BME280;17581;43.222;27.924;2023-02-02T06:37:29;100631.69;;;6.56;61.37
30875;BME280;17581;43.222;27.924;2023-02-02T06:39:55;100636.84;;;6.60;61.08
30875;BME280;17581;43.222;27.924;2023-02-02T06:42:20;100632.03;;;6.65;61.12
30875;BME280;17581;43.222;27.924;2023-02-02T06:44:46;100625.34;;;6.72;60.96
30875;BME280;17581;43.222;27.924;2023-02-02T06:47:11;100635.31;;;6.82;60.77
30875;BME280;17581;43.222;27.924;2023-02-02T06:49:37;100629.69;;;6.87;60.46
30875;BME280;17581;43.222;27.924;2023-02-02T06:52:02;100636.78;;;7.00;60.35
30875;BME280;17581;43.222;27.924;2023-02-02T06:54:28;100641.50;;;7.09;59.96
30875;BME280;17581;43.222;27.924;2023-02-02T06:56:54;100651.81;;;7.16;59.80
30875;BME280;17581;43.222;27.924;2023-02-02T06:59:20;100636.63;;;7.16;59.69
30875;BME280;17581;43.222;27.924;2023-02-02T07:01:48;100625.66;;;7.06;59.32
30875;BME280;17581;43.222;27.924;2023-02-02T07:04:13;100644.97;;;7.11;59.76
30875;BME280;17581;43.222;27.924;2023-02-02T07:06:40;100647.69;;;7.24;59.57
30875;BME280;17581;43.222;27.924;2023-02-02T07:09:06;100651.84;;;7.28;59.40
30875;BME280;17581;43.222;27.924;2023-02-02T07:11:31;100647.47;;;7.27;59.05
30875;BME280;17581;43.222;27.924;2023-02-02T07:13:57;100644.38;;;7.33;59.14
30875;BME280;17581;43.222;27.924;2023-02-02T07:16:22;100660.44;;;7.33;59.03
30875;BME280;17581;43.222;27.924;2023-02-02T07:18:47;100640.31;;;7.40;59.44
30875;BME280;17581;43.222;27.924;2023-02-02T07:21:21;100643.97;;;7.39;59.35
30875;BME280;17581;43.222;27.924;2023-02-02T07:23:47;100660.00;;;7.39;58.89
30875;BME280;17581;43.222;27.924;2023-02-02T07:26:14;100664.78;;;7.34;59.40
30875;BME280;17581;43.222;27.924;2023-02-02T07:28:40;100666.44;;;7.37;59.59
30875;BME280;17581;43.222;27.924;2023-02-02T07:31:13;100649.53;;;7.36;59.58
30875;BME280;17581;43.222;27.924;2023-02-02T07:33:43;100666.56;;;7.48;59.20
30875;BME280;17581;43.222;27.924;2023-02-02T07:36:14;100657.75;;;7.33;59.22
30875;BME280;17581;43.222;27.924;2023-02-02T07:38:47;100661.28;;;7.34;59.04
30875;BME280;17581;43.222;27.924;2023-02-02T07:41:13;100670.34;;;7.31;59.50
30875;BME280;17581;43.222;27.924;2023-02-02T07:43:40;100645.00;;;7.24;59.47
30875;BME280;17581;43.222;27.924;2023-02-02T07:46:07;100669.19;;;7.35;59.13
30875;BME280;17581;43.222;27.924;2023-02-02T07:48:34;100669.22;;;7.48;59.23
30875;BME280;17581;43.222;27.924;2023-02-02T07:51:02;100667.75;;;7.56;58.93
30875;BME280;17581;43.222;27.924;2023-02-02T07:53:28;100651.91;;;7.53;58.85
30875;BME280;17581;43.222;27.924;2023-02-02T07:56:07;100667.13;;;7.65;58.87
30875;BME280;17581;43.222;27.924;2023-02-02T07:58:32;100663.78;;;7.62;58.67
30875;BME280;17581;43.222;27.924;2023-02-02T08:01:02;100658.56;;;7.60;58.70
30875;BME280;17581;43.222;27.924;2023-02-02T08:03:29;100676.44;;;7.73;59.02
30875;BME280;17581;43.222;27.924;2023-02-02T08:05:55;100666.47;;;7.75;58.72
30875;BME280;17581;43.222;27.924;2023-02-02T08:08:20;100666.50;;;7.87;58.38
30875;BME280;17581;43.222;27.924;2023-02-02T08:10:50;100653.84;;;7.89;58.17
30875;BME280;17581;43.222;27.924;2023-02-02T08:13:15;100666.41;;;7.89;58.72
30875;BME280;17581;43.222;27.924;2023-02-02T08:15:41;100656.84;;;7.97;58.12
30875;BME280;17581;43.222;27.924;2023-02-02T08:18:06;100662.94;;;8.12;57.55
30875;BME280;17581;43.222;27.924;2023-02-02T08:20:32;100668.63;;;8.20;57.86
30875;BME280;17581;43.222;27.924;2023-02-02T08:22:58;100668.41;;;8.23;57.51
30875;BME280;17581;43.222;27.924;2023-02-02T08:25:24;100666.09;;;8.31;57.34
30875;BME280;17581;43.222;27.924;2023-02-02T08:27:53;100668.97;;;8.41;56.70
30875;BME280;17581;43.222;27.924;2023-02-02T08:30:19;100665.94;;;8.45;56.65
30875;BME280;17581;43.222;27.924;2023-02-02T08:32:44;100665.78;;;8.59;56.91
30875;BME280;17581;43.222;27.924;2023-02-02T08:35:10;100669.59;;;8.81;56.38
30875;BME280;17581;43.222;27.924;2023-02-02T08:37:36;100674.16;;;8.91;56.13
30875;BME280;17581;43.222;27.924;2023-02-02T08:40:01;100644.16;;;8.86;55.07
30875;BME280;17581;43.222;27.924;2023-02-02T08:42:27;100680.06;;;9.20;55.13
30875;BME280;17581;43.222;27.924;2023-02-02T08:44:52;100674.47;;;9.23;54.67
30875;BME280;17581;43.222;27.924;2023-02-02T08:47:18;100682.81;;;9.42;54.45
30875;BME280;17581;43.222;27.924;2023-02-02T08:49:43;100678.25;;;9.55;54.42
30875;BME280;17581;43.222;27.924;2023-02-02T08:52:09;100668.16;;;9.70;53.37
30875;BME280;17581;43.222;27.924;2023-02-02T08:54:34;100679.75;;;9.81;52.96
30875;BME280;17581;43.222;27.924;2023-02-02T08:57:00;100688.34;;;9.87;52.79
30875;BME280;17581;43.222;27.924;2023-02-02T08:59:25;100680.81;;;10.03;52.10
30875;BME280;17581;43.222;27.924;2023-02-02T09:01:51;100673.97;;;10.10;52.02
30875;BME280;17581;43.222;27.924;2023-02-02T09:04:16;100661.47;;;9.87;52.55
30875;BME280;17581;43.222;27.924;2023-02-02T09:06:42;100673.97;;;10.10;52.74
30875;BME280;17581;43.222;27.924;2023-02-02T09:09:12;100680.34;;;10.20;52.20
30875;BME280;17581;43.222;27.924;2023-02-02T09:11:37;100669.63;;;10.42;52.03
30875;BME280;17581;43.222;27.924;2023-02-02T09:14:03;100661.56;;;10.42;51.19
30875;BME280;17581;43.222;27.924;2023-02-02T09:16:31;100664.72;;;10.69;51.20
30875;BME280;17581;43.222;27.924;2023-02-02T09:18:57;100670.94;;;10.70;50.64
30875;BME280;17581;43.222;27.924;2023-02-02T09:21:23;100668.38;;;10.57;50.26
30875;BME280;17581;43.222;27.924;2023-02-02T09:23:49;100664.72;;;10.47;50.13
30875;BME280;17581;43.222;27.924;2023-02-02T09:26:26;100662.16;;;10.34;50.72
30875;BME280;17581;43.222;27.924;2023-02-02T09:29:01;100656.91;;;10.22;51.22
30875;BME280;17581;43.222;27.924;2023-02-02T09:31:28;100660.22;;;10.36;51.06
30875;BME280;17581;43.222;27.924;2023-02-02T09:33:54;100653.72;;;10.28;50.69
30875;BME280;17581;43.222;27.924;2023-02-02T09:36:21;100645.59;;;9.95;51.25
30875;BME280;17581;43.222;27.924;2023-02-02T09:38:49;100649.53;;;10.02;51.66
30875;BME280;17581;43.222;27.924;2023-02-02T09:52:37;100618.28;;;10.12;51.07
30875;BME280;17581;43.222;27.924;2023-02-02T09:55:29;100633.47;;;10.24;51.01
30875;BME280;17581;43.222;27.924;2023-02-02T09:58:30;100612.28;;;10.30;50.92
30875;BME280;17581;43.222;27.924;2023-02-02T10:01:07;100603.88;;;10.35;50.84
30875;BME280;17581;43.222;27.924;2023-02-02T10:06:30;100594.78;;;10.58;50.16
30875;BME280;17581;43.222;27.924;2023-02-02T10:09:05;100582.50;;;10.76;49.69
30875;BME280;17581;43.222;27.924;2023-02-02T10:14:19;100562.09;;;10.74;49.22
30875;BME280;17581;43.222;27.924;2023-02-02T10:16:48;100567.06;;;10.58;49.13
30875;BME280;17581;43.222;27.924;2023-02-02T10:19:16;100555.19;;;10.60;49.05
30875;BME280;17581;43.222;27.924;2023-02-02T10:24:20;100567.81;;;10.80;49.23
30875;BME280;17581;43.222;27.924;2023-02-02T10:26:53;100565.84;;;10.82;48.99
30875;BME280;17581;43.222;27.924;2023-02-02T10:35:06;100566.91;;;11.23;47.65
30875;BME280;17581;43.222;27.924;2023-02-02T10:37:39;100578.84;;;11.30;47.59
30875;BME280;17581;43.222;27.924;2023-02-02T10:40:14;100567.31;;;11.39;47.01
30875;BME280;17581;43.222;27.924;2023-02-02T10:45:56;100564.69;;;11.28;46.98
30875;BME280;17581;43.222;27.924;2023-02-02T10:48:28;100564.44;;;11.31;46.61
30875;BME280;17581;43.222;27.924;2023-02-02T10:50:58;100563.75;;;11.18;47.54
30875;BME280;17581;43.222;27.924;2023-02-02T10:53:29;100564.72;;;11.17;47.51
30875;BME280;17581;43.222;27.924;2023-02-02T10:56:02;100570.97;;;11.17;47.96
30875;BME280;17581;43.222;27.924;2023-02-02T10:58:49;100552.91;;;11.29;47.48
30875;BME280;17581;43.222;27.924;2023-02-02T11:01:17;100566.19;;;11.41;47.48
30875;BME280;17581;43.222;27.924;2023-02-02T11:03:46;100550.03;;;11.41;46.92
30875;BME280;17581;43.222;27.924;2023-02-02T11:06:12;100537.22;;;11.55;46.92
30875;BME280;17581;43.222;27.924;2023-02-02T11:08:56;100549.28;;;11.60;46.26
30875;BME280;17581;43.222;27.924;2023-02-02T11:11:44;100539.47;;;11.50;46.45
30875;BME280;17581;43.222;27.924;2023-02-02T11:14:17;100540.50;;;11.58;46.70
30875;BME280;17581;43.222;27.924;2023-02-02T11:17:05;100540.94;;;11.63;46.68
30875;BME280;17581;43.222;27.924;2023-02-02T11:19:39;100536.94;;;11.78;46.70
30875;BME280;17581;43.222;27.924;2023-02-02T11:22:04;100547.72;;;11.78;45.29
30875;BME280;17581;43.222;27.924;2023-02-02T11:24:47;100555.00;;;11.87;44.76
30875;BME280;17581;43.222;27.924;2023-02-02T11:34:48;100541.16;;;12.02;43.54
30875;BME280;17581;43.222;27.924;2023-02-02T11:37:30;100536.31;;;11.95;43.67
30875;BME280;17581;43.222;27.924;2023-02-02T11:42:49;100525.81;;;11.92;44.08
30875;BME280;17581;43.222;27.924;2023-02-02T11:45:17;100517.25;;;11.87;44.50
30875;BME280;17581;43.222;27.924;2023-02-02T11:47:45;100532.06;;;12.02;44.75
30875;BME280;17581;43.222;27.924;2023-02-02T11:50:24;100512.22;;;12.04;45.21
30875;BME280;17581;43.222;27.924;2023-02-02T11:52:50;100532.66;;;12.06;45.12
30875;BME280;17581;43.222;27.924;2023-02-02T11:55:21;100510.47;;;11.93;44.74
30875;BME280;17581;43.222;27.924;2023-02-02T11:58:24;100515.31;;;11.89;45.03
30875;BME280;17581;43.222;27.924;2023-02-02T12:01:21;100519.41;;;11.93;44.84
30875;BME280;17581;43.222;27.924;2023-02-02T12:03:48;100498.25;;;11.79;44.68
30875;BME280;17581;43.222;27.924;2023-02-02T12:09:00;100501.16;;;12.07;45.11
30875;BME280;17581;43.222;27.924;2023-02-02T12:11:42;100492.09;;;12.08;45.22
30875;BME280;17581;43.222;27.924;2023-02-02T12:20:01;100468.81;;;12.07;44.50
30875;BME280;17581;43.222;27.924;2023-02-02T12:42:19;100480.91;;;12.22;44.29
30875;BME280;17581;43.222;27.924;2023-02-02T12:45:21;100482.50;;;12.34;43.80
30875;BME280;17581;43.222;27.924;2023-02-02T12:48:38;100483.06;;;12.28;44.27
30875;BME280;17581;43.222;27.924;2023-02-02T12:51:27;100479.47;;;12.18;44.26
30875;BME280;17581;43.222;27.924;2023-02-02T12:54:23;100478.66;;;12.27;44.65
30875;BME280;17581;43.222;27.924;2023-02-02T12:57:13;100473.41;;;12.25;44.70
30875;BME280;17581;43.222;27.924;2023-02-02T13:02:49;100476.97;;;12.45;44.34
30875;BME280;17581;43.222;27.924;2023-02-02T13:08:28;100479.09;;;12.61;44.55
30875;BME280;17581;43.222;27.924;2023-02-02T13:11:01;100468.75;;;12.66;44.35
30875;BME280;17581;43.222;27.924;2023-02-02T13:13:36;100468.31;;;12.70;43.97
30875;BME280;17581;43.222;27.924;2023-02-02T13:16:08;100461.94;;;12.71;44.08
30875;BME280;17581;43.222;27.924;2023-02-02T13:18:41;100467.47;;;12.60;44.09
30875;BME280;17581;43.222;27.924;2023-02-02T13:21:12;100467.75;;;12.57;44.33
30875;BME280;17581;43.222;27.924;2023-02-02T13:23:44;100450.44;;;12.50;43.87
30875;BME280;17581;43.222;27.924;2023-02-02T13:26:31;100467.88;;;12.36;44.33
30875;BME280;17581;43.222;27.924;2023-02-02T13:31:58;100468.59;;;12.29;44.90
30875;BME280;17581;43.222;27.924;2023-02-02T13:37:15;100468.53;;;12.10;44.98
30875;BME280;17581;43.222;27.924;2023-02-02T13:39:55;100474.22;;;12.07;45.22
30875;BME280;17581;43.222;27.924;2023-02-02T13:42:37;100463.97;;;12.00;45.19
30875;BME280;17581;43.222;27.924;2023-02-02T13:45:23;100474.88;;;11.89;45.33
30875;BME280;17581;43.222;27.924;2023-02-02T13:48:00;100466.25;;;11.95;44.92
30875;BME280;17581;43.222;27.924;2023-02-02T13:50:30;100459.72;;;11.98;45.20
30875;BME280;17581;43.222;27.924;2023-02-02T14:00:42;100452.31;;;11.90;44.28
30875;BME280;17581;43.222;27.924;2023-02-02T14:03:21;100451.19;;;11.93;43.76
30875;BME280;17581;43.222;27.924;2023-02-02T14:06:16;100447.47;;;11.84;43.83
30875;BME280;17581;43.222;27.924;2023-02-02T14:08:56;100444.63;;;11.76;43.83
30875;BME280;17581;43.222;27.924;2023-02-02T14:16:48;100443.06;;;11.53;44.03
30875;BME280;17581;43.222;27.924;2023-02-02T14:34:49;100427.66;;;11.55;43.17
30875;BME280;17581;43.222;27.924;2023-02-02T14:43:10;100434.72;;;11.56;43.07
30875;BME280;17581;43.222;27.924;2023-02-02T14:48:38;100449.22;;;11.65;43.30
30875;BME280;17581;43.222;27.924;2023-02-02T14:51:17;100466.47;;;11.53;43.96
30875;BME280;17581;43.222;27.924;2023-02-02T14:53:54;100479.94;;;11.53;43.73
30875;BME280;17581;43.222;27.924;2023-02-02T14:56:50;100521.78;;;11.36;45.78
30875;BME280;17581;43.222;27.924;2023-02-02T14:59:25;100550.91;;;10.89;53.46
30875;BME280;17581;43.222;27.924;2023-02-02T15:01:58;100577.47;;;10.40;57.10
30875;BME280;17581;43.222;27.924;2023-02-02T15:04:26;100565.75;;;9.97;59.86
30875;BME280;17581;43.222;27.924;2023-02-02T15:06:52;100590.59;;;9.54;61.97
30875;BME280;17581;43.222;27.924;2023-02-02T15:14:37;100603.66;;;8.16;69.21
30875;BME280;17581;43.222;27.924;2023-02-02T15:22:52;100607.34;;;7.27;73.86
30875;BME280;17581;43.222;27.924;2023-02-02T15:25:31;100607.41;;;7.13;74.95
30875;BME280;17581;43.222;27.924;2023-02-02T15:28:17;100611.28;;;7.09;75.53
30875;BME280;17581;43.222;27.924;2023-02-02T15:30:49;100604.31;;;7.19;76.04
30875;BME280;17581;43.222;27.924;2023-02-02T15:33:31;100615.63;;;7.10;76.16
30875;BME280;17581;43.222;27.924;2023-02-02T15:36:03;100599.25;;;7.02;76.13
30875;BME280;17581;43.222;27.924;2023-02-02T15:38:33;100610.00;;;7.15;76.29